createdAt,value
2023-01-29T00:20:39.510Z,1029.05
2023-01-29T00:49:19.045Z,1028.85
2023-01-29T01:18:05.656Z,1028.98
2023-01-29T01:46:49.474Z,1029.02
2023-01-29T02:15:30.404Z,1029.08
2023-01-29T02:44:12.536Z,1029.05
2023-01-29T03:12:56.179Z,1029.08
2023-01-29T03:41:40.357Z,1029.16
2023-01-29T04:10:22.440Z,1029.14
2023-01-29T04:38:58.111Z,1029.06
2023-01-29T05:07:40.241Z,1028.98
2023-01-29T05:36:24.736Z,1029.26
2023-01-29T06:05:12.391Z,1028.74
2023-01-29T06:34:01.324Z,1029.13
2023-01-29T07:02:51.918Z,1029.29
2023-01-29T07:31:39.326Z,1029.17
2023-01-29T08:00:19.631Z,1029.74
2023-01-29T08:28:52.691Z,1030.14
2023-01-29T08:57:41.373Z,1030.2
2023-01-29T09:26:20.926Z,1030.17
2023-01-29T09:55:03.178Z,1030.35
2023-01-29T10:23:43.032Z,1029.58
2023-01-29T10:52:23.423Z,1029.57
2023-01-29T11:21:07.029Z,1029.28
2023-01-29T11:49:51.995Z,1029.13
2023-01-29T12:18:24.269Z,1028.89
2023-01-29T12:47:08.020Z,1028.26
2023-01-29T13:15:45.226Z,1027.75
2023-01-29T13:44:17.821Z,1027.71
2023-01-29T14:12:54.569Z,1027.9
2023-01-29T14:41:34.516Z,1027.87
2023-01-29T15:10:24.143Z,1027.95
2023-01-29T15:38:40.510Z,1027.78
2023-01-29T16:07:06.427Z,1027.77
2023-01-29T16:35:48.273Z,1027.98
2023-01-29T17:04:15.308Z,1028.1
2023-01-29T17:32:55.168Z,1027.99
2023-01-29T18:01:28.010Z,1028
2023-01-29T18:30:06.755Z,1028.03
2023-01-29T18:58:56.465Z,1027.95
2023-01-29T19:27:12.050Z,1028.2
2023-01-29T19:55:47.340Z,1028.08
2023-01-29T20:24:31.191Z,1028.15
2023-01-29T20:53:16.392Z,1028.06
2023-01-29T21:22:00.304Z,1027.92
2023-01-29T21:50:40.383Z,1027.74
2023-01-29T22:19:24.866Z,1027.8
2023-01-29T22:48:12.077Z,1027.69
2023-01-29T23:16:55.450Z,1027
2023-01-29T23:45:32.402Z,1026.58
